sensor_id;sensor_type;location;lat;lon;timestamp;temperature;humidity
49184;DHT22;35021;49.214;12.270;2023-02-28T00:00:21;18.40;26.00
49184;DHT22;35021;49.214;12.270;2023-02-28T00:02:49;18.40;26.00
49184;DHT22;35021;49.214;12.270;2023-02-28T00:05:19;18.40;26.00
49184;DHT22;35021;49.214;12.270;2023-02-28T00:07:46;18.40;26.00
49184;DHT22;35021;49.214;12.270;2023-02-28T00:12:48;18.40;26.00
49184;DHT22;35021;49.214;12.270;2023-02-28T00:15:15;18.40;26.00
49184;DHT22;35021;49.214;12.270;2023-02-28T00:17:43;18.40;26.00
49184;DHT22;35021;49.214;12.270;2023-02-28T00:20:11;18.40;26.00
49184;DHT22;35021;49.214;12.270;2023-02-28T00:22:40;18.40;26.00
49184;DHT22;35021;49.214;12.270;2023-02-28T00:25:12;18.40;26.00
49184;DHT22;35021;49.214;12.270;2023-02-28T00:27:40;18.40;26.00
49184;DHT22;35021;49.214;12.270;2023-02-28T00:30:11;18.40;26.00
49184;DHT22;35021;49.214;12.270;2023-02-28T00:32:38;18.40;26.00
49184;DHT22;35021;49.214;12.270;2023-02-28T00:35:05;18.40;26.00
49184;DHT22;35021;49.214;12.270;2023-02-28T00:37:33;18.40;26.10
49184;DHT22;35021;49.214;12.270;2023-02-28T00:40:00;18.40;26.10
49184;DHT22;35021;49.214;12.270;2023-02-28T00:42:27;18.40;26.10
49184;DHT22;35021;49.214;12.270;2023-02-28T00:44:53;18.40;26.10
49184;DHT22;35021;49.214;12.270;2023-02-28T00:47:20;18.40;26.20
49184;DHT22;35021;49.214;12.270;2023-02-28T00:49:47;18.30;26.10
49184;DHT22;35021;49.214;12.270;2023-02-28T00:52:14;18.30;26.20
49184;DHT22;35021;49.214;12.270;2023-02-28T00:54:41;18.30;26.20
49184;DHT22;35021;49.214;12.270;2023-02-28T00:57:08;18.30;26.10
49184;DHT22;35021;49.214;12.270;2023-02-28T00:59:35;18.30;26.10
49184;DHT22;35021;49.214;12.270;2023-02-28T01:02:02;18.30;26.10
49184;DHT22;35021;49.214;12.270;2023-02-28T01:04:29;18.30;26.10
49184;DHT22;35021;49.214;12.270;2023-02-28T01:06:56;18.30;26.10
49184;DHT22;35021;49.214;12.270;2023-02-28T01:09:22;18.30;26.00
49184;DHT22;35021;49.214;12.270;2023-02-28T01:11:49;18.30;26.10
49184;DHT22;35021;49.214;12.270;2023-02-28T01:14:17;18.40;26.10
49184;DHT22;35021;49.214;12.270;2023-02-28T01:16:44;18.40;26.10
49184;DHT22;35021;49.214;12.270;2023-02-28T01:19:11;18.40;26.10
49184;DHT22;35021;49.214;12.270;2023-02-28T01:21:38;18.40;26.10
49184;DHT22;35021;49.214;12.270;2023-02-28T01:24:05;18.40;26.20
49184;DHT22;35021;49.214;12.270;2023-02-28T01:26:33;18.40;26.10
49184;DHT22;35021;49.214;12.270;2023-02-28T01:29:00;18.40;26.20
49184;DHT22;35021;49.214;12.270;2023-02-28T01:31:27;18.40;26.20
49184;DHT22;35021;49.214;12.270;2023-02-28T01:33:54;18.40;26.20
49184;DHT22;35021;49.214;12.270;2023-02-28T01:36:23;18.40;26.20
49184;DHT22;35021;49.214;12.270;2023-02-28T01:38:50;18.40;26.20
49184;DHT22;35021;49.214;12.270;2023-02-28T01:41:24;18.30;26.10
49184;DHT22;35021;49.214;12.270;2023-02-28T01:43:58;18.40;26.20
49184;DHT22;35021;49.214;12.270;2023-02-28T01:46:25;18.30;26.20
49184;DHT22;35021;49.214;12.270;2023-02-28T01:49:07;18.30;26.30
49184;DHT22;35021;49.214;12.270;2023-02-28T01:51:44;18.30;26.30
49184;DHT22;35021;49.214;12.270;2023-02-28T01:54:16;18.30;26.40
49184;DHT22;35021;49.214;12.270;2023-02-28T01:56:49;18.30;26.40
49184;DHT22;35021;49.214;12.270;2023-02-28T01:59:29;18.20;26.50
49184;DHT22;35021;49.214;12.270;2023-02-28T02:01:58;18.20;26.60
49184;DHT22;35021;49.214;12.270;2023-02-28T02:04:32;18.20;26.60
49184;DHT22;35021;49.214;12.270;2023-02-28T02:07:01;18.20;26.70
49184;DHT22;35021;49.214;12.270;2023-02-28T02:09:28;18.20;26.70
49184;DHT22;35021;49.214;12.270;2023-02-28T02:11:55;18.20;26.70
49184;DHT22;35021;49.214;12.270;2023-02-28T02:14:35;18.30;26.70
49184;DHT22;35021;49.214;12.270;2023-02-28T02:17:33;18.30;26.60
49184;DHT22;35021;49.214;12.270;2023-02-28T02:25:32;18.50;26.60
49184;DHT22;35021;49.214;12.270;2023-02-28T02:36:05;18.50;26.40
49184;DHT22;35021;49.214;12.270;2023-02-28T02:46:52;18.50;26.50
49184;DHT22;35021;49.214;12.270;2023-02-28T02:49:25;18.50;26.50
49184;DHT22;35021;49.214;12.270;2023-02-28T02:51:56;18.60;26.50
49184;DHT22;35021;49.214;12.270;2023-02-28T02:54:28;18.60;26.50
49184;DHT22;35021;49.214;12.270;2023-02-28T02:57:01;18.60;26.40
49184;DHT22;35021;49.214;12.270;2023-02-28T02:59:30;18.60;26.50
49184;DHT22;35021;49.214;12.270;2023-02-28T03:02:02;18.60;26.40
49184;DHT22;35021;49.214;12.270;2023-02-28T03:04:40;18.70;26.50
49184;DHT22;35021;49.214;12.270;2023-02-28T03:07:08;18.70;26.40
49184;DHT22;35021;49.214;12.270;2023-02-28T03:09:35;18.70;26.40
49184;DHT22;35021;49.214;12.270;2023-02-28T03:12:03;18.70;26.30
49184;DHT22;35021;49.214;12.270;2023-02-28T03:18:13;18.70;26.30
49184;DHT22;35021;49.214;12.270;2023-02-28T03:28:26;18.70;26.40
49184;DHT22;35021;49.214;12.270;2023-02-28T03:30:59;18.70;26.40
49184;DHT22;35021;49.214;12.270;2023-02-28T03:33:32;18.70;26.40
49184;DHT22;35021;49.214;12.270;2023-02-28T03:36:16;18.70;26.40
49184;DHT22;35021;49.214;12.270;2023-02-28T03:38:53;18.70;26.30
49184;DHT22;35021;49.214;12.270;2023-02-28T03:41:23;18.80;26.40
49184;DHT22;35021;49.214;12.270;2023-02-28T03:43:57;18.80;26.40
49184;DHT22;35021;49.214;12.270;2023-02-28T03:46:28;18.80;26.30
49184;DHT22;35021;49.214;12.270;2023-02-28T03:49:12;18.80;26.30
49184;DHT22;35021;49.214;12.270;2023-02-28T03:51:42;18.80;26.30
49184;DHT22;35021;49.214;12.270;2023-02-28T03:54:13;18.90;26.20
49184;DHT22;35021;49.214;12.270;2023-02-28T03:56:56;18.80;26.20
49184;DHT22;35021;49.214;12.270;2023-02-28T03:59:48;18.80;26.20
49184;DHT22;35021;49.214;12.270;2023-02-28T04:02:19;18.80;26.10
49184;DHT22;35021;49.214;12.270;2023-02-28T04:04:45;18.80;26.20
49184;DHT22;35021;49.214;12.270;2023-02-28T04:07:16;18.80;26.20
49184;DHT22;35021;49.214;12.270;2023-02-28T04:09:43;18.70;26.20
49184;DHT22;35021;49.214;12.270;2023-02-28T04:12:10;18.70;26.20
49184;DHT22;35021;49.214;12.270;2023-02-28T04:14:37;18.60;26.20
49184;DHT22;35021;49.214;12.270;2023-02-28T04:17:04;18.60;26.30
49184;DHT22;35021;49.214;12.270;2023-02-28T04:19:31;18.60;26.40
49184;DHT22;35021;49.214;12.270;2023-02-28T04:21:58;18.50;26.40
49184;DHT22;35021;49.214;12.270;2023-02-28T04:24:27;18.40;26.40
49184;DHT22;35021;49.214;12.270;2023-02-28T04:26:56;18.40;26.50
49184;DHT22;35021;49.214;12.270;2023-02-28T04:29:32;18.40;26.60
49184;DHT22;35021;49.214;12.270;2023-02-28T04:31:59;18.30;26.60
49184;DHT22;35021;49.214;12.270;2023-02-28T04:34:28;18.30;26.70
49184;DHT22;35021;49.214;12.270;2023-02-28T04:36:56;18.30;26.70
49184;DHT22;35021;49.214;12.270;2023-02-28T04:39:39;18.30;26.70
49184;DHT22;35021;49.214;12.270;2023-02-28T04:42:06;18.40;26.70
49184;DHT22;35021;49.214;12.270;2023-02-28T04:44:33;18.40;26.70
49184;DHT22;35021;49.214;12.270;2023-02-28T04:47:00;18.40;26.70
49184;DHT22;35021;49.214;12.270;2023-02-28T04:49:26;18.40;26.70
49184;DHT22;35021;49.214;12.270;2023-02-28T04:51:53;18.40;26.70
49184;DHT22;35021;49.214;12.270;2023-02-28T04:54:20;18.40;26.60
49184;DHT22;35021;49.214;12.270;2023-02-28T04:56:47;18.30;26.60
49184;DHT22;35021;49.214;12.270;2023-02-28T04:59:16;18.30;26.60
49184;DHT22;35021;49.214;12.270;2023-02-28T05:01:47;18.30;26.60
49184;DHT22;35021;49.214;12.270;2023-02-28T05:04:14;18.30;26.60
49184;DHT22;35021;49.214;12.270;2023-02-28T05:06:42;18.30;26.70
49184;DHT22;35021;49.214;12.270;2023-02-28T05:09:09;18.30;26.70
49184;DHT22;35021;49.214;12.270;2023-02-28T05:11:38;18.20;26.70
49184;DHT22;35021;49.214;12.270;2023-02-28T05:14:11;18.20;26.70
49184;DHT22;35021;49.214;12.270;2023-02-28T05:16:38;18.20;26.70
49184;DHT22;35021;49.214;12.270;2023-02-28T05:19:05;18.20;26.70
49184;DHT22;35021;49.214;12.270;2023-02-28T05:21:35;18.20;26.70
49184;DHT22;35021;49.214;12.270;2023-02-28T05:24:10;18.30;26.70
49184;DHT22;35021;49.214;12.270;2023-02-28T05:26:39;18.30;26.70
49184;DHT22;35021;49.214;12.270;2023-02-28T05:29:07;18.30;26.60
49184;DHT22;35021;49.214;12.270;2023-02-28T05:31:34;18.30;26.60
49184;DHT22;35021;49.214;12.270;2023-02-28T05:34:02;18.30;26.50
49184;DHT22;35021;49.214;12.270;2023-02-28T05:36:30;18.30;26.40
49184;DHT22;35021;49.214;12.270;2023-02-28T05:38:57;18.30;26.40
49184;DHT22;35021;49.214;12.270;2023-02-28T05:41:24;18.30;26.40
49184;DHT22;35021;49.214;12.270;2023-02-28T05:43:53;18.20;26.50
49184;DHT22;35021;49.214;12.270;2023-02-28T05:46:19;18.20;26.50
49184;DHT22;35021;49.214;12.270;2023-02-28T05:48:47;18.20;26.50
49184;DHT22;35021;49.214;12.270;2023-02-28T05:51:15;18.10;26.30
49184;DHT22;35021;49.214;12.270;2023-02-28T05:53:42;18.10;26.30
49184;DHT22;35021;49.214;12.270;2023-02-28T05:56:08;18.10;26.30
49184;DHT22;35021;49.214;12.270;2023-02-28T05:58:35;18.10;26.20
49184;DHT22;35021;49.214;12.270;2023-02-28T06:04:00;18.10;26.00
49184;DHT22;35021;49.214;12.270;2023-02-28T06:06:28;18.10;25.90
49184;DHT22;35021;49.214;12.270;2023-02-28T06:08:56;18.20;26.00
49184;DHT22;35021;49.214;12.270;2023-02-28T06:11:23;18.20;25.90
49184;DHT22;35021;49.214;12.270;2023-02-28T06:13:56;18.20;25.80
49184;DHT22;35021;49.214;12.270;2023-02-28T06:16:24;18.20;25.60
49184;DHT22;35021;49.214;12.270;2023-02-28T06:18:51;18.30;25.60
49184;DHT22;35021;49.214;12.270;2023-02-28T06:21:19;18.30;25.50
49184;DHT22;35021;49.214;12.270;2023-02-28T06:23:45;18.30;25.50
49184;DHT22;35021;49.214;12.270;2023-02-28T06:26:12;18.20;25.40
49184;DHT22;35021;49.214;12.270;2023-02-28T06:28:39;18.20;25.50
49184;DHT22;35021;49.214;12.270;2023-02-28T06:31:11;18.20;25.50
49184;DHT22;35021;49.214;12.270;2023-02-28T06:33:39;18.20;25.60
49184;DHT22;35021;49.214;12.270;2023-02-28T06:36:06;18.20;25.60
49184;DHT22;35021;49.214;12.270;2023-02-28T06:38:34;18.20;25.60
49184;DHT22;35021;49.214;12.270;2023-02-28T06:41:02;18.20;25.60
49184;DHT22;35021;49.214;12.270;2023-02-28T06:43:31;18.20;25.60
49184;DHT22;35021;49.214;12.270;2023-02-28T06:46:00;18.20;25.60
49184;DHT22;35021;49.214;12.270;2023-02-28T06:48:27;18.10;25.60
49184;DHT22;35021;49.214;12.270;2023-02-28T06:51:09;18.20;25.60
49184;DHT22;35021;49.214;12.270;2023-02-28T06:53:36;18.20;25.70
49184;DHT22;35021;49.214;12.270;2023-02-28T06:56:04;18.20;25.70
49184;DHT22;35021;49.214;12.270;2023-02-28T06:58:33;18.20;25.70
49184;DHT22;35021;49.214;12.270;2023-02-28T07:01:01;18.20;26.20
49184;DHT22;35021;49.214;12.270;2023-02-28T07:03:28;18.20;25.60
49184;DHT22;35021;49.214;12.270;2023-02-28T07:05:54;18.20;25.60
49184;DHT22;35021;49.214;12.270;2023-02-28T07:08:23;18.20;25.70
49184;DHT22;35021;49.214;12.270;2023-02-28T07:10:57;18.10;25.70
49184;DHT22;35021;49.214;12.270;2023-02-28T07:13:24;18.10;25.70
49184;DHT22;35021;49.214;12.270;2023-02-28T07:15:57;18.00;25.80
49184;DHT22;35021;49.214;12.270;2023-02-28T07:18:24;18.00;25.90
49184;DHT22;35021;49.214;12.270;2023-02-28T07:20:52;18.00;25.90
49184;DHT22;35021;49.214;12.270;2023-02-28T07:23:19;18.00;26.00
49184;DHT22;35021;49.214;12.270;2023-02-28T07:25:46;18.00;26.10
49184;DHT22;35021;49.214;12.270;2023-02-28T07:28:13;18.00;26.00
49184;DHT22;35021;49.214;12.270;2023-02-28T07:30:40;18.00;26.10
49184;DHT22;35021;49.214;12.270;2023-02-28T07:33:19;18.00;26.20
49184;DHT22;35021;49.214;12.270;2023-02-28T07:35:46;18.00;26.10
49184;DHT22;35021;49.214;12.270;2023-02-28T07:38:13;18.10;26.20
49184;DHT22;35021;49.214;12.270;2023-02-28T07:40:40;18.10;26.70
49184;DHT22;35021;49.214;12.270;2023-02-28T07:43:07;18.10;26.00
49184;DHT22;35021;49.214;12.270;2023-02-28T07:45:34;18.10;25.90
49184;DHT22;35021;49.214;12.270;2023-02-28T07:48:01;18.10;25.80
49184;DHT22;35021;49.214;12.270;2023-02-28T07:50:28;18.10;25.80
49184;DHT22;35021;49.214;12.270;2023-02-28T07:52:58;18.10;25.80
49184;DHT22;35021;49.214;12.270;2023-02-28T07:55:25;18.10;25.80
49184;DHT22;35021;49.214;12.270;2023-02-28T07:57:52;18.00;25.80
49184;DHT22;35021;49.214;12.270;2023-02-28T08:00:20;18.00;25.70
49184;DHT22;35021;49.214;12.270;2023-02-28T08:02:47;18.00;25.70
49184;DHT22;35021;49.214;12.270;2023-02-28T08:05:14;18.00;25.70
49184;DHT22;35021;49.214;12.270;2023-02-28T08:07:41;18.00;25.70
49184;DHT22;35021;49.214;12.270;2023-02-28T08:10:08;18.00;25.70
49184;DHT22;35021;49.214;12.270;2023-02-28T08:12:36;18.10;25.60
49184;DHT22;35021;49.214;12.270;2023-02-28T08:15:03;18.10;25.60
49184;DHT22;35021;49.214;12.270;2023-02-28T08:17:30;18.10;25.70
49184;DHT22;35021;49.214;12.270;2023-02-28T08:20:00;18.10;25.60
49184;DHT22;35021;49.214;12.270;2023-02-28T08:22:28;18.10;25.60
49184;DHT22;35021;49.214;12.270;2023-02-28T08:24:55;18.10;25.70
49184;DHT22;35021;49.214;12.270;2023-02-28T08:27:22;18.10;25.70
49184;DHT22;35021;49.214;12.270;2023-02-28T08:29:49;18.00;25.70
49184;DHT22;35021;49.214;12.270;2023-02-28T08:32:16;18.00;25.70
49184;DHT22;35021;49.214;12.270;2023-02-28T08:34:55;17.90;25.70
49184;DHT22;35021;49.214;12.270;2023-02-28T08:37:22;17.80;25.80
49184;DHT22;35021;49.214;12.270;2023-02-28T08:39:49;17.80;25.80
49184;DHT22;35021;49.214;12.270;2023-02-28T08:42:16;17.70;25.90
49184;DHT22;35021;49.214;12.270;2023-02-28T08:44:43;17.70;26.00
49184;DHT22;35021;49.214;12.270;2023-02-28T08:47:10;17.70;26.10
49184;DHT22;35021;49.214;12.270;2023-02-28T08:49:37;17.70;26.10
49184;DHT22;35021;49.214;12.270;2023-02-28T08:52:04;17.70;26.10
49184;DHT22;35021;49.214;12.270;2023-02-28T08:54:31;17.70;26.10
49184;DHT22;35021;49.214;12.270;2023-02-28T08:57:00;17.70;26.20
49184;DHT22;35021;49.214;12.270;2023-02-28T08:59:28;17.70;26.30
49184;DHT22;35021;49.214;12.270;2023-02-28T09:01:55;17.80;26.20
49184;DHT22;35021;49.214;12.270;2023-02-28T09:04:22;17.80;26.10
49184;DHT22;35021;49.214;12.270;2023-02-28T09:06:51;17.80;26.10
49184;DHT22;35021;49.214;12.270;2023-02-28T09:09:18;17.90;26.10
49184;DHT22;35021;49.214;12.270;2023-02-28T09:11:44;17.80;26.00
49184;DHT22;35021;49.214;12.270;2023-02-28T09:14:11;17.80;26.00
49184;DHT22;35021;49.214;12.270;2023-02-28T09:16:38;17.80;26.00
49184;DHT22;35021;49.214;12.270;2023-02-28T09:19:05;17.80;26.60
49184;DHT22;35021;49.214;12.270;2023-02-28T09:21:32;17.80;26.00
49184;DHT22;35021;49.214;12.270;2023-02-28T09:23:59;17.70;26.10
49184;DHT22;35021;49.214;12.270;2023-02-28T09:26:27;17.70;26.10
49184;DHT22;35021;49.214;12.270;2023-02-28T09:29:08;17.80;26.10
49184;DHT22;35021;49.214;12.270;2023-02-28T09:31:35;17.80;26.10
49184;DHT22;35021;49.214;12.270;2023-02-28T09:34:03;17.80;26.00
49184;DHT22;35021;49.214;12.270;2023-02-28T09:36:30;17.80;26.00
49184;DHT22;35021;49.214;12.270;2023-02-28T09:39:10;17.80;26.10
49184;DHT22;35021;49.214;12.270;2023-02-28T09:41:45;17.80;26.10
49184;DHT22;35021;49.214;12.270;2023-02-28T09:44:27;17.90;26.30
49184;DHT22;35021;49.214;12.270;2023-02-28T09:47:18;18.00;26.30
49184;DHT22;35021;49.214;12.270;2023-02-28T09:49:48;18.00;26.20
49184;DHT22;35021;49.214;12.270;2023-02-28T09:52:20;18.10;26.10
49184;DHT22;35021;49.214;12.270;2023-02-28T09:54:47;18.10;26.20
49184;DHT22;35021;49.214;12.270;2023-02-28T09:57:37;18.20;26.20
49184;DHT22;35021;49.214;12.270;2023-02-28T10:00:21;18.30;26.20
49184;DHT22;35021;49.214;12.270;2023-02-28T10:05:54;18.40;26.20
49184;DHT22;35021;49.214;12.270;2023-02-28T10:08:30;18.50;26.10
49184;DHT22;35021;49.214;12.270;2023-02-28T10:11:01;18.50;26.10
49184;DHT22;35021;49.214;12.270;2023-02-28T10:13:34;18.60;26.10
49184;DHT22;35021;49.214;12.270;2023-02-28T10:16:09;18.60;26.10
49184;DHT22;35021;49.214;12.270;2023-02-28T10:18:48;18.70;26.20
49184;DHT22;35021;49.214;12.270;2023-02-28T10:21:30;18.70;26.10
49184;DHT22;35021;49.214;12.270;2023-02-28T10:24:03;18.70;25.90
49184;DHT22;35021;49.214;12.270;2023-02-28T10:26:36;18.80;25.90
49184;DHT22;35021;49.214;12.270;2023-02-28T10:29:03;18.80;25.80
49184;DHT22;35021;49.214;12.270;2023-02-28T10:31:30;18.90;25.80
49184;DHT22;35021;49.214;12.270;2023-02-28T10:33:57;18.90;25.70
49184;DHT22;35021;49.214;12.270;2023-02-28T10:36:23;18.80;25.80
49184;DHT22;35021;49.214;12.270;2023-02-28T10:38:50;18.90;25.70
49184;DHT22;35021;49.214;12.270;2023-02-28T10:41:31;18.90;25.70
49184;DHT22;35021;49.214;12.270;2023-02-28T10:44:29;18.90;25.80
49184;DHT22;35021;49.214;12.270;2023-02-28T10:46:56;18.90;25.80
49184;DHT22;35021;49.214;12.270;2023-02-28T10:49:27;18.90;25.60
49184;DHT22;35021;49.214;12.270;2023-02-28T10:51:58;19.00;25.60
49184;DHT22;35021;49.214;12.270;2023-02-28T10:57:27;19.00;25.50
49184;DHT22;35021;49.214;12.270;2023-02-28T11:00:18;19.00;25.40
49184;DHT22;35021;49.214;12.270;2023-02-28T11:02:45;19.00;25.40
49184;DHT22;35021;49.214;12.270;2023-02-28T11:05:31;19.10;25.40
49184;DHT22;35021;49.214;12.270;2023-02-28T11:08:14;19.10;25.40
49184;DHT22;35021;49.214;12.270;2023-02-28T11:10:46;19.10;25.40
49184;DHT22;35021;49.214;12.270;2023-02-28T11:13:28;19.20;25.30
49184;DHT22;35021;49.214;12.270;2023-02-28T11:15:58;19.20;25.20
49184;DHT22;35021;49.214;12.270;2023-02-28T11:18:30;19.20;25.20
49184;DHT22;35021;49.214;12.270;2023-02-28T11:21:02;19.30;25.30
49184;DHT22;35021;49.214;12.270;2023-02-28T11:23:32;19.30;25.20
49184;DHT22;35021;49.214;12.270;2023-02-28T11:26:04;19.30;25.10
49184;DHT22;35021;49.214;12.270;2023-02-28T11:28:40;19.30;25.70
49184;DHT22;35021;49.214;12.270;2023-02-28T11:33:49;19.20;25.20
49184;DHT22;35021;49.214;12.270;2023-02-28T11:36:24;19.20;25.20
49184;DHT22;35021;49.214;12.270;2023-02-28T11:38:56;19.10;25.10
49184;DHT22;35021;49.214;12.270;2023-02-28T11:46:59;19.00;25.30
49184;DHT22;35021;49.214;12.270;2023-02-28T11:49:47;18.90;25.40
49184;DHT22;35021;49.214;12.270;2023-02-28T11:55:11;18.90;26.00
49184;DHT22;35021;49.214;12.270;2023-02-28T11:57:49;18.80;25.40
49184;DHT22;35021;49.214;12.270;2023-02-28T12:11:16;18.50;25.50
49184;DHT22;35021;49.214;12.270;2023-02-28T12:13:48;18.50;25.60
49184;DHT22;35021;49.214;12.270;2023-02-28T12:16:55;18.40;25.70
49184;DHT22;35021;49.214;12.270;2023-02-28T12:22:30;18.50;25.90
49184;DHT22;35021;49.214;12.270;2023-02-28T12:25:27;18.50;25.90
49184;DHT22;35021;49.214;12.270;2023-02-28T12:27:58;18.60;25.80
49184;DHT22;35021;49.214;12.270;2023-02-28T12:30:32;18.60;25.80
49184;DHT22;35021;49.214;12.270;2023-02-28T12:33:08;18.60;25.70
49184;DHT22;35021;49.214;12.270;2023-02-28T12:35:47;18.70;25.70
49184;DHT22;35021;49.214;12.270;2023-02-28T12:38:25;18.70;25.70
49184;DHT22;35021;49.214;12.270;2023-02-28T12:40:56;18.80;25.80
49184;DHT22;35021;49.214;12.270;2023-02-28T12:43:30;18.80;25.70
49184;DHT22;35021;49.214;12.270;2023-02-28T12:46:07;18.90;25.70
49184;DHT22;35021;49.214;12.270;2023-02-28T12:48:46;18.90;25.70
49184;DHT22;35021;49.214;12.270;2023-02-28T12:51:15;18.90;25.60
49184;DHT22;35021;49.214;12.270;2023-02-28T12:53:54;18.90;25.50
49184;DHT22;35021;49.214;12.270;2023-02-28T12:59:00;19.00;25.70
49184;DHT22;35021;49.214;12.270;2023-02-28T13:05:07;19.10;25.70
49184;DHT22;35021;49.214;12.270;2023-02-28T13:10:13;19.20;25.70
49184;DHT22;35021;49.214;12.270;2023-02-28T13:12:53;19.30;25.70
49184;DHT22;35021;49.214;12.270;2023-02-28T13:15:26;19.30;25.70
49184;DHT22;35021;49.214;12.270;2023-02-28T13:17:57;19.30;25.60
49184;DHT22;35021;49.214;12.270;2023-02-28T13:20:47;19.30;25.60
49184;DHT22;35021;49.214;12.270;2023-02-28T13:23:41;19.30;25.50
49184;DHT22;35021;49.214;12.270;2023-02-28T13:34:34;19.10;25.60
49184;DHT22;35021;49.214;12.270;2023-02-28T13:39:57;19.00;25.70
49184;DHT22;35021;49.214;12.270;2023-02-28T13:42:55;18.90;25.70
49184;DHT22;35021;49.214;12.270;2023-02-28T13:45:29;18.90;25.70
49184;DHT22;35021;49.214;12.270;2023-02-28T13:48:16;18.80;25.80
49184;DHT22;35021;49.214;12.270;2023-02-28T13:50:43;18.70;25.80
49184;DHT22;35021;49.214;12.270;2023-02-28T13:58:46;18.50;25.90
49184;DHT22;35021;49.214;12.270;2023-02-28T14:01:30;18.40;25.90
49184;DHT22;35021;49.214;12.270;2023-02-28T14:06:59;18.30;26.10
49184;DHT22;35021;49.214;12.270;2023-02-28T14:09:35;18.30;26.10
49184;DHT22;35021;49.214;12.270;2023-02-28T14:18:17;18.30;26.20
49184;DHT22;35021;49.214;12.270;2023-02-28T14:20:47;18.30;26.10
49184;DHT22;35021;49.214;12.270;2023-02-28T14:29:25;18.60;26.30
49184;DHT22;35021;49.214;12.270;2023-02-28T14:37:13;18.80;26.20
49184;DHT22;35021;49.214;12.270;2023-02-28T14:39:41;18.80;26.00
49184;DHT22;35021;49.214;12.270;2023-02-28T14:42:39;18.90;25.90
49184;DHT22;35021;49.214;12.270;2023-02-28T14:45:20;18.90;26.40
49184;DHT22;35021;49.214;12.270;2023-02-28T14:47:49;18.90;25.90
49184;DHT22;35021;49.214;12.270;2023-02-28T14:50:22;18.90;25.80
49184;DHT22;35021;49.214;12.270;2023-02-28T14:52:53;19.00;25.90
49184;DHT22;35021;49.214;12.270;2023-02-28T14:55:28;19.00;25.90
49184;DHT22;35021;49.214;12.270;2023-02-28T14:58:00;19.00;25.90
49184;DHT22;35021;49.214;12.270;2023-02-28T15:00:31;19.10;25.90
49184;DHT22;35021;49.214;12.270;2023-02-28T15:03:00;19.10;26.00
49184;DHT22;35021;49.214;12.270;2023-02-28T15:05:34;19.10;26.00
49184;DHT22;35021;49.214;12.270;2023-02-28T15:08:13;19.00;25.90
49184;DHT22;35021;49.214;12.270;2023-02-28T15:11:01;19.00;25.90
49184;DHT22;35021;49.214;12.270;2023-02-28T15:13:47;18.90;25.90
49184;DHT22;35021;49.214;12.270;2023-02-28T15:16:34;18.90;26.00
49184;DHT22;35021;49.214;12.270;2023-02-28T15:19:02;18.80;26.10
49184;DHT22;35021;49.214;12.270;2023-02-28T15:21:34;18.80;26.00
49184;DHT22;35021;49.214;12.270;2023-02-28T15:24:11;18.80;26.10
49184;DHT22;35021;49.214;12.270;2023-02-28T15:26:43;18.70;26.10
49184;DHT22;35021;49.214;12.270;2023-02-28T15:29:17;18.70;26.20
49184;DHT22;35021;49.214;12.270;2023-02-28T15:31:49;18.70;26.20
49184;DHT22;35021;49.214;12.270;2023-02-28T15:34:38;18.70;26.20
49184;DHT22;35021;49.214;12.270;2023-02-28T15:37:40;18.60;26.20
49184;DHT22;35021;49.214;12.270;2023-02-28T15:42:37;18.50;26.30
49184;DHT22;35021;49.214;12.270;2023-02-28T15:45:04;18.50;26.30
49184;DHT22;35021;49.214;12.270;2023-02-28T15:47:32;18.40;26.30
49184;DHT22;35021;49.214;12.270;2023-02-28T15:50:01;18.40;26.40
49184;DHT22;35021;49.214;12.270;2023-02-28T15:52:34;18.40;26.40
49184;DHT22;35021;49.214;12.270;2023-02-28T15:57:40;18.50;26.40
49184;DHT22;35021;49.214;12.270;2023-02-28T16:00:15;18.50;26.40
49184;DHT22;35021;49.214;12.270;2023-02-28T16:02:42;18.50;26.30
49184;DHT22;35021;49.214;12.270;2023-02-28T16:07:39;18.60;26.30
49184;DHT22;35021;49.214;12.270;2023-02-28T16:10:07;18.70;26.30
49184;DHT22;35021;49.214;12.270;2023-02-28T16:12:36;18.70;26.30
49184;DHT22;35021;49.214;12.270;2023-02-28T16:15:23;18.70;26.30
49184;DHT22;35021;49.214;12.270;2023-02-28T16:17:53;18.80;26.30
49184;DHT22;35021;49.214;12.270;2023-02-28T16:20:23;18.90;26.20
49184;DHT22;35021;49.214;12.270;2023-02-28T16:22:51;18.90;26.20
49184;DHT22;35021;49.214;12.270;2023-02-28T16:25:25;18.90;26.70
49184;DHT22;35021;49.214;12.270;2023-02-28T16:27:54;18.90;26.20
49184;DHT22;35021;49.214;12.270;2023-02-28T16:30:26;18.90;26.20
49184;DHT22;35021;49.214;12.270;2023-02-28T16:32:55;18.90;26.20
49184;DHT22;35021;49.214;12.270;2023-02-28T16:35:22;19.00;26.30
49184;DHT22;35021;49.214;12.270;2023-02-28T16:37:51;19.00;26.30
49184;DHT22;35021;49.214;12.270;2023-02-28T16:40:21;19.00;26.30
49184;DHT22;35021;49.214;12.270;2023-02-28T16:42:51;19.10;26.30
49184;DHT22;35021;49.214;12.270;2023-02-28T16:45:25;19.10;26.20
49184;DHT22;35021;49.214;12.270;2023-02-28T16:47:53;19.10;26.30
49184;DHT22;35021;49.214;12.270;2023-02-28T16:50:23;19.20;26.30
49184;DHT22;35021;49.214;12.270;2023-02-28T16:52:50;19.20;26.30
49184;DHT22;35021;49.214;12.270;2023-02-28T16:55:22;19.30;26.40
49184;DHT22;35021;49.214;12.270;2023-02-28T16:57:59;19.30;26.40
49184;DHT22;35021;49.214;12.270;2023-02-28T17:00:28;19.30;26.30
49184;DHT22;35021;49.214;12.270;2023-02-28T17:02:56;19.30;26.40
49184;DHT22;35021;49.214;12.270;2023-02-28T17:05:23;19.20;26.30
49184;DHT22;35021;49.214;12.270;2023-02-28T17:07:50;19.20;26.30
49184;DHT22;35021;49.214;12.270;2023-02-28T17:10:23;19.20;26.30
49184;DHT22;35021;49.214;12.270;2023-02-28T17:12:50;19.10;26.40
49184;DHT22;35021;49.214;12.270;2023-02-28T17:15:18;19.10;26.40
49184;DHT22;35021;49.214;12.270;2023-02-28T17:17:47;19.10;26.50
49184;DHT22;35021;49.214;12.270;2023-02-28T17:20:17;19.10;26.50
49184;DHT22;35021;49.214;12.270;2023-02-28T17:22:44;19.00;26.50
49184;DHT22;35021;49.214;12.270;2023-02-28T17:25:11;19.00;26.60
49184;DHT22;35021;49.214;12.270;2023-02-28T17:27:38;18.90;26.60
49184;DHT22;35021;49.214;12.270;2023-02-28T17:32:41;18.90;26.70
49184;DHT22;35021;49.214;12.270;2023-02-28T17:35:09;18.90;26.70
49184;DHT22;35021;49.214;12.270;2023-02-28T17:37:36;18.90;26.80
49184;DHT22;35021;49.214;12.270;2023-02-28T17:40:04;18.90;26.80
49184;DHT22;35021;49.214;12.270;2023-02-28T17:42:31;18.90;26.80
49184;DHT22;35021;49.214;12.270;2023-02-28T17:44:58;18.90;26.70